createdAt,value
2018-09-11T00:00:26.398Z,6.47
2018-09-11T00:02:55.940Z,6.87
2018-09-11T00:05:25.448Z,6.93
2018-09-11T00:07:55.005Z,7.40
2018-09-11T00:10:24.575Z,7.60
2018-09-11T00:12:54.202Z,6.90
2018-09-11T00:15:23.834Z,7.03
2018-09-11T00:17:53.371Z,7.47
2018-09-11T00:20:22.917Z,8.10
2018-09-11T00:22:52.453Z,7.17
2018-09-11T00:25:21.998Z,7.30
2018-09-11T00:27:51.596Z,7.13
2018-09-11T00:30:21.236Z,7.17
2018-09-11T00:32:50.813Z,7.27
2018-09-11T00:35:20.411Z,7.17
2018-09-11T00:37:50.071Z,7.47
2018-09-11T00:40:19.582Z,7.13
2018-09-11T00:42:49.180Z,7.63
2018-09-11T00:45:18.799Z,6.83
2018-09-11T00:47:48.389Z,7.17
2018-09-11T00:50:17.911Z,7.17
2018-09-11T00:52:47.459Z,7.33
2018-09-11T00:55:17.056Z,7.13
2018-09-11T00:57:46.656Z,6.90
2018-09-11T01:00:16.148Z,6.67
2018-09-11T01:02:45.736Z,7.00
2018-09-11T01:05:15.375Z,7.13
2018-09-11T01:07:44.896Z,6.90
2018-09-11T01:10:14.571Z,7.10
2018-09-11T01:12:44.060Z,6.93
2018-09-11T01:15:13.596Z,6.87
2018-09-11T01:17:43.091Z,7.27
2018-09-11T01:20:12.590Z,6.70
2018-09-11T01:22:42.083Z,7.20
2018-09-11T01:25:11.625Z,6.70
2018-09-11T01:27:41.144Z,6.97
2018-09-11T01:30:10.680Z,7.37
2018-09-11T01:32:40.236Z,6.93
2018-09-11T01:35:09.788Z,7.10
2018-09-11T01:37:39.252Z,6.90
2018-09-11T01:40:08.828Z,7.47
2018-09-11T01:42:38.383Z,7.33
2018-09-11T01:45:08.365Z,6.70
2018-09-11T01:47:37.960Z,7.30
2018-09-11T01:50:07.660Z,7.13
2018-09-11T01:52:37.226Z,7.37
2018-09-11T01:55:06.839Z,7.20
2018-09-11T01:57:36.367Z,6.80
2018-09-11T02:00:06.259Z,7.07
2018-09-11T02:02:35.825Z,6.97
2018-09-11T02:05:05.452Z,7.80
2018-09-11T02:07:35.036Z,7.10
2018-09-11T02:10:04.665Z,7.00
2018-09-11T02:12:34.193Z,8.17
2018-09-11T02:15:04.066Z,6.80
2018-09-11T02:17:33.750Z,7.77
2018-09-11T02:20:03.356Z,7.50
2018-09-11T02:22:32.922Z,7.47
2018-09-11T02:25:02.409Z,7.37
2018-09-11T02:27:31.949Z,7.70
2018-09-11T02:30:01.487Z,8.00
2018-09-11T02:32:31.025Z,7.60
2018-09-11T02:35:00.570Z,7.30
2018-09-11T02:37:30.163Z,7.63
2018-09-11T02:39:59.714Z,7.60
2018-09-11T02:42:29.223Z,7.50
2018-09-11T02:44:58.759Z,7.70
2018-09-11T02:47:28.308Z,8.07
2018-09-11T02:49:57.808Z,7.90
2018-09-11T02:52:27.307Z,9.13
2018-09-11T02:54:56.950Z,8.23
2018-09-11T02:57:26.439Z,7.93
2018-09-11T02:59:55.972Z,7.80
2018-09-11T03:02:25.546Z,8.30
2018-09-11T03:04:55.083Z,8.77
2018-09-11T03:07:24.653Z,8.43
2018-09-11T03:09:54.243Z,7.77
2018-09-11T03:12:23.782Z,8.20
2018-09-11T03:14:53.396Z,7.90
2018-09-11T03:17:22.977Z,8.17
2018-09-11T03:19:52.578Z,8.23
2018-09-11T03:22:22.109Z,7.83
2018-09-11T03:24:51.683Z,7.97
2018-09-11T03:27:21.230Z,8.30
2018-09-11T03:29:50.780Z,7.67
2018-09-11T03:32:20.302Z,8.40
2018-09-11T03:34:49.872Z,8.37
2018-09-11T03:37:19.419Z,8.50
2018-09-11T03:39:49.085Z,8.10
2018-09-11T03:42:18.639Z,8.10
2018-09-11T03:44:48.162Z,8.60
2018-09-11T03:47:17.760Z,8.03
2018-09-11T03:49:47.375Z,7.50
2018-09-11T03:52:16.889Z,8.43
2018-09-11T03:54:46.429Z,8.17
2018-09-11T03:57:15.942Z,7.97
2018-09-11T03:59:45.506Z,7.87
2018-09-11T04:02:15.095Z,8.27
2018-09-11T04:04:44.644Z,8.47
2018-09-11T04:07:14.245Z,8.10
2018-09-11T04:09:43.847Z,8.20
2018-09-11T04:12:13.436Z,9.20
2018-09-11T04:14:42.930Z,8.03
2018-09-11T04:17:12.419Z,7.60
2018-09-11T04:19:41.963Z,7.70
2018-09-11T04:22:11.462Z,8.00
2018-09-11T04:24:40.987Z,8.60
2018-09-11T04:27:10.591Z,7.63
2018-09-11T04:29:40.111Z,8.07
2018-09-11T04:32:09.709Z,7.83
2018-09-11T04:34:39.207Z,7.60
2018-09-11T04:37:08.756Z,7.67
2018-09-11T04:39:38.269Z,8.33
2018-09-11T04:42:07.956Z,7.57
2018-09-11T04:44:37.536Z,7.67
2018-09-11T04:47:07.250Z,7.33
2018-09-11T04:49:36.734Z,7.13
2018-09-11T04:52:06.352Z,7.60
2018-09-11T04:54:35.945Z,7.57
2018-09-11T04:57:05.709Z,8.20
2018-09-11T04:59:35.982Z,7.00
2018-09-11T05:02:05.630Z,7.20
2018-09-11T05:04:36.728Z,8.23
2018-09-11T05:07:08.906Z,7.17
2018-09-11T05:09:38.932Z,7.13
2018-09-11T05:12:18.023Z,7.47
2018-09-11T05:15:04.318Z,7.63
2018-09-11T05:17:42.719Z,8.00
2018-09-11T05:20:13.870Z,7.40
2018-09-11T05:22:46.630Z,7.50
2018-09-11T05:25:24.828Z,7.53
2018-09-11T05:28:05.614Z,7.80
2018-09-11T05:30:42.070Z,7.57
2018-09-11T05:33:15.715Z,7.23
2018-09-11T05:35:45.717Z,10.00
2018-09-11T05:38:20.519Z,7.70
2018-09-11T05:40:53.027Z,7.67
2018-09-11T05:43:22.563Z,7.27
2018-09-11T05:45:55.974Z,7.57
2018-09-11T05:48:25.546Z,7.13
2018-09-11T05:50:55.284Z,7.27
2018-09-11T05:53:24.798Z,7.37
2018-09-11T05:55:54.693Z,7.30
2018-09-11T05:58:24.356Z,6.77
2018-09-11T06:00:54.033Z,7.77
2018-09-11T06:03:23.589Z,8.10
2018-09-11T06:05:53.232Z,8.70
2018-09-11T06:08:22.860Z,7.47
2018-09-11T06:10:52.527Z,7.53
2018-09-11T06:13:22.024Z,7.53
2018-09-11T06:15:51.582Z,7.73
2018-09-11T06:18:21.139Z,7.27
2018-09-11T06:20:50.748Z,7.30
2018-09-11T06:23:20.424Z,7.73
2018-09-11T06:25:50.020Z,7.50
2018-09-11T06:28:19.632Z,7.40
2018-09-11T06:30:49.246Z,7.53
2018-09-11T06:33:19.385Z,9.00
2018-09-11T06:35:48.914Z,7.37
2018-09-11T06:38:18.535Z,7.87
2018-09-11T06:40:48.370Z,9.37
2018-09-11T06:43:18.109Z,7.70
2018-09-11T06:45:47.627Z,6.90
2018-09-11T06:48:17.251Z,7.30
2018-09-11T06:50:47.067Z,7.63
2018-09-11T06:53:16.676Z,7.00
2018-09-11T06:55:46.257Z,6.57
2018-09-11T06:58:15.813Z,8.40
2018-09-11T07:00:45.546Z,7.07
2018-09-11T07:03:15.096Z,7.00
2018-09-11T07:05:44.684Z,7.07
2018-09-11T07:08:14.327Z,8.57
2018-09-11T07:10:43.908Z,7.17
2018-09-11T07:13:13.574Z,8.03
2018-09-11T07:15:43.195Z,7.33
2018-09-11T07:18:12.765Z,6.77
2018-09-11T07:20:42.362Z,6.77
2018-09-11T07:23:12.016Z,7.03
2018-09-11T07:25:41.939Z,7.20
2018-09-11T07:28:12.571Z,7.20
2018-09-11T07:30:42.080Z,7.17
2018-09-11T07:33:11.633Z,7.80
2018-09-11T07:35:41.217Z,6.73
2018-09-11T07:38:10.794Z,6.90
2018-09-11T07:40:40.306Z,8.13
2018-09-11T07:43:09.943Z,7.33
2018-09-11T07:45:39.519Z,7.20
2018-09-11T07:48:09.062Z,7.47
2018-09-11T07:50:38.664Z,7.50
2018-09-11T07:53:08.265Z,8.40
2018-09-11T07:55:38.338Z,7.37
2018-09-11T07:58:08.231Z,6.90
2018-09-11T08:00:37.760Z,7.53
2018-09-11T08:03:07.351Z,7.80
2018-09-11T08:05:36.882Z,9.03
2018-09-11T08:08:06.498Z,6.40
2018-09-11T08:10:36.054Z,6.83
2018-09-11T08:13:05.656Z,6.27
2018-09-11T08:15:35.254Z,6.70
2018-09-11T08:18:04.857Z,7.03
2018-09-11T08:20:34.413Z,6.53
2018-09-11T08:23:04.138Z,6.33
2018-09-11T08:25:33.667Z,6.27
2018-09-11T08:28:03.258Z,7.70
2018-09-11T08:30:33.420Z,6.30
2018-09-11T08:33:03.902Z,6.30
2018-09-11T08:35:33.482Z,6.40
2018-09-11T08:38:03.611Z,6.90
2018-09-11T08:40:33.111Z,6.40
2018-09-11T08:43:02.670Z,7.47
2018-09-11T08:45:32.219Z,7.37
2018-09-11T08:48:01.792Z,6.50
2018-09-11T08:50:31.358Z,6.27
2018-09-11T08:53:01.005Z,7.07
2018-09-11T08:55:30.898Z,7.60
2018-09-11T08:58:00.456Z,7.27
2018-09-11T09:00:30.020Z,6.47
2018-09-11T09:02:59.509Z,6.47
2018-09-11T09:05:29.494Z,6.10
2018-09-11T09:07:59.167Z,6.57
2018-09-11T09:10:28.888Z,6.30
2018-09-11T09:12:58.575Z,6.40
2018-09-11T09:15:28.181Z,7.47
2018-09-11T09:17:57.676Z,6.37
2018-09-11T09:20:27.249Z,6.37
2018-09-11T09:22:56.830Z,6.27
2018-09-11T09:25:26.411Z,6.13
2018-09-11T09:27:55.935Z,6.00
2018-09-11T09:30:25.492Z,6.33
2018-09-11T09:32:55.175Z,5.90
2018-09-11T09:35:24.710Z,6.50
2018-09-11T09:37:54.233Z,6.53
2018-09-11T09:40:23.940Z,6.47
2018-09-11T09:42:53.471Z,6.00
2018-09-11T09:45:23.126Z,5.80
2018-09-11T09:47:52.704Z,5.80
2018-09-11T09:50:22.342Z,5.43
2018-09-11T09:52:53.564Z,5.90
2018-09-11T09:55:23.704Z,6.90
2018-09-11T09:57:54.914Z,6.13
2018-09-11T10:00:31.026Z,6.10
2018-09-11T10:03:00.583Z,5.20
2018-09-11T10:05:30.135Z,7.33
2018-09-11T10:07:59.745Z,8.73
2018-09-11T10:10:29.303Z,9.00
2018-09-11T10:12:58.934Z,6.20
2018-09-11T10:15:28.568Z,5.60
2018-09-11T10:17:58.126Z,6.87
2018-09-11T10:20:28.615Z,5.80
2018-09-11T10:22:58.288Z,6.07
2018-09-11T10:25:27.871Z,5.37
2018-09-11T10:27:57.489Z,5.50
2018-09-11T10:30:27.050Z,6.73
2018-09-11T10:32:56.598Z,5.90
2018-09-11T10:35:26.152Z,5.43
2018-09-11T10:37:55.859Z,5.53
2018-09-11T10:40:25.427Z,6.60
2018-09-11T10:42:54.922Z,5.50
2018-09-11T10:45:24.534Z,5.40
2018-09-11T10:47:54.053Z,5.80
2018-09-11T10:50:23.651Z,6.50
2018-09-11T10:52:53.267Z,5.93
2018-09-11T10:55:22.900Z,5.77
2018-09-11T10:57:52.596Z,5.80
2018-09-11T11:00:22.224Z,6.23
2018-09-11T11:02:51.859Z,5.50
2018-09-11T11:05:21.543Z,5.60
2018-09-11T11:07:51.123Z,5.50
2018-09-11T11:10:20.738Z,5.00
2018-09-11T11:12:50.310Z,5.23
2018-09-11T11:15:19.944Z,5.50
2018-09-11T11:17:49.543Z,5.37
2018-09-11T11:20:19.130Z,5.40
2018-09-11T11:22:48.879Z,5.33
2018-09-11T11:25:18.459Z,5.17
2018-09-11T11:27:48.037Z,5.20
2018-09-11T11:30:17.720Z,5.80
2018-09-11T11:32:48.120Z,6.77
2018-09-11T11:35:19.166Z,5.77
2018-09-11T11:37:48.817Z,14.30
2018-09-11T11:40:18.419Z,10.50
2018-09-11T11:42:48.079Z,7.10
2018-09-11T11:45:17.611Z,10.87
2018-09-11T11:47:47.140Z,7.97
2018-09-11T11:50:16.741Z,6.43
2018-09-11T11:52:46.383Z,5.70
2018-09-11T11:55:16.183Z,5.43
2018-09-11T11:57:45.716Z,5.90
2018-09-11T12:00:15.319Z,5.30
2018-09-11T12:02:44.884Z,5.03
2018-09-11T12:05:14.468Z,5.40
2018-09-11T12:07:44.116Z,5.43
2018-09-11T12:10:13.736Z,5.27
2018-09-11T12:12:43.294Z,4.83
2018-09-11T12:15:12.944Z,5.00
2018-09-11T12:17:42.560Z,5.50
2018-09-11T12:20:12.086Z,5.50
2018-09-11T12:22:41.753Z,5.40
2018-09-11T12:25:11.279Z,4.90
2018-09-11T12:27:40.778Z,4.70
2018-09-11T12:30:10.384Z,5.33
2018-09-11T12:32:39.894Z,4.93
2018-09-11T12:35:09.490Z,4.87
2018-09-11T12:37:38.995Z,5.23
2018-09-11T12:40:08.723Z,4.93
2018-09-11T12:42:38.235Z,6.17
2018-09-11T12:45:07.878Z,5.87
2018-09-11T12:47:37.584Z,4.80
2018-09-11T12:50:07.167Z,5.23
2018-09-11T12:52:36.812Z,5.20
2018-09-11T12:55:06.676Z,4.70
2018-09-11T12:57:36.319Z,6.10
2018-09-11T13:00:06.636Z,4.97
2018-09-11T13:02:36.174Z,4.40
2018-09-11T13:05:05.943Z,4.43
2018-09-11T13:07:36.230Z,4.60
2018-09-11T13:10:06.064Z,5.67
2018-09-11T13:12:35.660Z,4.37
2018-09-11T13:15:05.675Z,5.43
2018-09-11T13:17:35.272Z,4.93
2018-09-11T13:20:04.963Z,5.03
2018-09-11T13:22:34.464Z,4.00
2018-09-11T13:25:04.523Z,5.33
2018-09-11T13:27:34.232Z,4.20
2018-09-11T13:30:03.964Z,4.50
2018-09-11T13:32:33.760Z,4.60
2018-09-11T13:35:03.767Z,4.70
2018-09-11T13:37:33.620Z,4.97
2018-09-11T13:40:03.144Z,4.50
2018-09-11T13:42:32.826Z,4.37
2018-09-11T13:45:02.538Z,4.07
2018-09-11T13:47:32.262Z,4.40
2018-09-11T13:50:03.919Z,4.23
2018-09-11T13:52:33.655Z,4.90
2018-09-11T13:55:03.345Z,4.40
2018-09-11T13:57:33.789Z,4.63
2018-09-11T14:00:03.531Z,4.37
2018-09-11T14:02:33.317Z,4.30
2018-09-11T14:05:02.824Z,8.00
2018-09-11T14:07:32.436Z,4.10
2018-09-11T14:10:02.041Z,3.90
2018-09-11T14:12:31.627Z,4.13
2018-09-11T14:15:01.262Z,4.17
2018-09-11T14:17:30.849Z,4.03
2018-09-11T14:20:00.449Z,3.67
2018-09-11T14:22:30.046Z,4.40
2018-09-11T14:24:59.580Z,3.93
2018-09-11T14:27:29.149Z,4.10
2018-09-11T14:29:58.731Z,4.40
2018-09-11T14:32:28.268Z,4.43
2018-09-11T14:34:57.871Z,4.53
2018-09-11T14:37:27.407Z,3.97
2018-09-11T14:39:56.966Z,4.27
2018-09-11T14:42:26.520Z,4.73
2018-09-11T14:44:56.075Z,4.20
2018-09-11T14:47:29.726Z,4.10
2018-09-11T14:49:59.378Z,4.10
2018-09-11T14:52:28.967Z,4.30
2018-09-11T14:54:58.591Z,4.20
2018-09-11T14:57:28.294Z,4.23
2018-09-11T14:59:57.850Z,3.93
2018-09-11T15:02:27.356Z,4.17
2018-09-11T15:04:56.937Z,4.07
2018-09-11T15:07:26.549Z,4.20
2018-09-11T15:09:56.182Z,4.63
2018-09-11T15:12:25.759Z,4.37
2018-09-11T15:14:55.434Z,5.10
2018-09-11T15:17:24.910Z,5.10
2018-09-11T15:19:54.455Z,5.23
2018-09-11T15:22:23.991Z,4.63
2018-09-11T15:24:53.502Z,4.53
2018-09-11T15:27:23.026Z,4.70
2018-09-11T15:29:52.599Z,4.43
2018-09-11T15:32:22.135Z,4.53
2018-09-11T15:34:51.938Z,5.20
2018-09-11T15:37:21.499Z,5.30
2018-09-11T15:39:51.100Z,5.83
2018-09-11T15:42:20.620Z,5.50
2018-09-11T15:44:50.220Z,5.90
2018-09-11T15:47:19.711Z,5.77
2018-09-11T15:49:49.259Z,5.87
2018-09-11T15:52:18.850Z,5.60
2018-09-11T15:54:48.380Z,5.03
2018-09-11T15:57:17.907Z,5.20
2018-09-11T15:59:47.381Z,5.53
2018-09-11T16:02:16.952Z,5.13
2018-09-11T16:04:46.471Z,5.30
2018-09-11T16:07:15.991Z,5.20
2018-09-11T16:09:45.510Z,5.80
2018-09-11T16:12:15.027Z,5.83
2018-09-11T16:14:44.570Z,5.80
2018-09-11T16:17:14.133Z,5.63
2018-09-11T16:19:43.701Z,5.80
2018-09-11T16:22:13.330Z,5.60
2018-09-11T16:24:42.771Z,6.23
2018-09-11T16:27:12.304Z,6.33
2018-09-11T16:29:42.110Z,5.80
2018-09-11T16:32:11.609Z,6.10
2018-09-11T16:34:41.178Z,6.47
2018-09-11T16:37:10.706Z,6.33
2018-09-11T16:39:40.192Z,6.17
2018-09-11T16:42:09.714Z,5.90
2018-09-11T16:44:39.223Z,5.67
2018-09-11T16:47:08.763Z,5.63
2018-09-11T16:49:38.295Z,5.40
2018-09-11T16:52:07.836Z,6.30
2018-09-11T16:54:37.397Z,6.80
2018-09-11T16:57:06.977Z,7.27
2018-09-11T16:59:36.476Z,5.77
2018-09-11T17:02:06.207Z,6.20
2018-09-11T17:04:35.731Z,5.63
2018-09-11T17:07:05.320Z,5.90
2018-09-11T17:09:34.872Z,6.43
2018-09-11T17:12:04.500Z,5.93
2018-09-11T17:14:34.047Z,6.03
2018-09-11T17:17:03.574Z,6.53
2018-09-11T17:19:33.107Z,6.23
2018-09-11T17:22:02.705Z,6.80
2018-09-11T17:24:32.231Z,6.97
2018-09-11T17:27:01.836Z,6.90
2018-09-11T17:29:31.367Z,7.97
2018-09-11T17:32:00.910Z,7.87
2018-09-11T17:34:30.428Z,8.83
2018-09-11T17:37:00.003Z,7.83
2018-09-11T17:39:29.588Z,8.63
2018-09-11T17:41:59.123Z,7.70
2018-09-11T17:44:28.754Z,7.83
2018-09-11T17:46:58.291Z,7.83
2018-09-11T17:49:27.802Z,7.10
2018-09-11T17:51:57.354Z,6.77
2018-09-11T17:54:26.847Z,7.40
2018-09-11T17:56:56.412Z,7.20
2018-09-11T17:59:25.968Z,6.27
2018-09-11T18:01:55.596Z,5.83
2018-09-11T18:04:25.198Z,5.53
2018-09-11T18:06:54.707Z,6.10
2018-09-11T18:09:24.270Z,5.50
2018-09-11T18:11:53.771Z,5.80
2018-09-11T18:14:23.309Z,5.50
2018-09-11T18:16:52.870Z,6.10
2018-09-11T18:19:22.358Z,5.73
2018-09-11T18:21:51.905Z,5.30
2018-09-11T18:24:21.458Z,5.63
2018-09-11T18:26:50.937Z,5.93
2018-09-11T18:29:20.896Z,5.83
2018-09-11T18:31:50.480Z,5.60
2018-09-11T18:34:20.007Z,5.63
2018-09-11T18:36:49.793Z,5.80
2018-09-11T18:39:19.401Z,6.07
2018-09-11T18:41:48.965Z,6.17
2018-09-11T18:44:18.579Z,6.67
2018-09-11T18:46:48.182Z,6.50
2018-09-11T18:49:17.735Z,6.67
2018-09-11T18:51:47.319Z,6.33
2018-09-11T18:54:16.840Z,6.10
2018-09-11T18:56:46.332Z,6.10
2018-09-11T18:59:15.875Z,6.03
2018-09-11T19:01:45.375Z,5.50
2018-09-11T19:04:14.993Z,5.20
2018-09-11T19:06:44.528Z,5.80
2018-09-11T19:09:14.132Z,4.97
2018-09-11T19:11:43.695Z,5.37
2018-09-11T19:14:13.249Z,8.27
2018-09-11T19:16:42.792Z,5.93
2018-09-11T19:19:12.304Z,5.37
2018-09-11T19:21:41.909Z,5.27
2018-09-11T19:24:11.418Z,5.50
2018-09-11T19:26:41.022Z,5.40
2018-09-11T19:29:10.491Z,5.50
2018-09-11T19:31:40.024Z,5.33
2018-09-11T19:34:09.675Z,5.10
2018-09-11T19:36:39.210Z,5.30
2018-09-11T19:39:09.227Z,5.50
2018-09-11T19:41:38.924Z,5.17
2018-09-11T19:44:08.423Z,5.07
2018-09-11T19:46:37.981Z,5.70
2018-09-11T19:49:07.572Z,5.47
2018-09-11T19:51:37.112Z,5.77
2018-09-11T19:54:06.659Z,5.73
2018-09-11T19:56:36.199Z,6.20
2018-09-11T19:59:05.757Z,5.80
2018-09-11T20:01:35.322Z,5.60
2018-09-11T20:04:04.933Z,5.20
2018-09-11T20:06:34.458Z,5.30
2018-09-11T20:09:04.915Z,5.57
2018-09-11T20:11:34.616Z,5.37
2018-09-11T20:14:04.417Z,5.03
2018-09-11T20:16:33.976Z,5.27
2018-09-11T20:19:03.744Z,5.20
2018-09-11T20:21:33.331Z,5.50
2018-09-11T20:24:02.874Z,5.00
2018-09-11T20:26:32.479Z,5.53
2018-09-11T20:29:02.218Z,5.33
2018-09-11T20:31:31.771Z,6.10
2018-09-11T20:34:01.401Z,5.10
2018-09-11T20:36:31.005Z,5.77
2018-09-11T20:39:00.512Z,5.27
2018-09-11T20:41:30.058Z,5.50
2018-09-11T20:43:59.600Z,5.73
2018-09-11T20:46:29.147Z,5.17
2018-09-11T20:49:01.807Z,5.83
2018-09-11T20:51:31.312Z,5.73
2018-09-11T20:54:00.972Z,5.40
2018-09-11T20:56:30.758Z,5.77
2018-09-11T20:59:00.792Z,5.60
2018-09-11T21:01:30.388Z,5.50
2018-09-11T21:03:59.922Z,5.17
2018-09-11T21:06:29.484Z,5.80
2018-09-11T21:08:59.030Z,5.40
2018-09-11T21:11:28.567Z,5.50
2018-09-11T21:13:58.071Z,5.33
2018-09-11T21:16:27.617Z,5.00
2018-09-11T21:18:57.171Z,5.00
2018-09-11T21:21:26.783Z,5.20
2018-09-11T21:23:56.428Z,5.27
2018-09-11T21:26:25.998Z,5.33
2018-09-11T21:28:55.526Z,5.47
2018-09-11T21:31:25.099Z,5.27
2018-09-11T21:33:54.603Z,4.70
2018-09-11T21:36:24.171Z,5.43
2018-09-11T21:38:53.679Z,4.97
2018-09-11T21:41:23.230Z,5.13
2018-09-11T21:43:52.845Z,5.10
2018-09-11T21:46:22.491Z,5.00
2018-09-11T21:48:51.953Z,5.10
2018-09-11T21:51:21.519Z,5.70
2018-09-11T21:53:51.127Z,5.70
2018-09-11T21:56:20.644Z,5.50
2018-09-11T21:58:50.191Z,5.10
2018-09-11T22:01:24.846Z,5.60
2018-09-11T22:03:54.366Z,5.37
2018-09-11T22:06:23.980Z,5.17
2018-09-11T22:08:53.468Z,5.80
2018-09-11T22:11:23.034Z,5.30
2018-09-11T22:13:52.549Z,5.37
2018-09-11T22:16:22.085Z,5.30
2018-09-11T22:18:51.817Z,5.10
2018-09-11T22:21:21.367Z,5.50
2018-09-11T22:23:50.870Z,5.53
2018-09-11T22:26:20.504Z,5.73
2018-09-11T22:28:50.056Z,5.23
2018-09-11T22:31:19.663Z,5.47
2018-09-11T22:33:49.158Z,5.50
2018-09-11T22:36:18.760Z,5.57
2018-09-11T22:38:48.290Z,5.60
2018-09-11T22:41:17.904Z,5.57
2018-09-11T22:43:47.423Z,5.53
2018-09-11T22:46:17.071Z,5.00
2018-09-11T22:48:46.667Z,5.50
2018-09-11T22:51:16.207Z,5.50
2018-09-11T22:53:45.823Z,5.37
2018-09-11T22:56:15.386Z,5.30
2018-09-11T22:58:45.315Z,5.43
2018-09-11T23:01:14.848Z,5.60
2018-09-11T23:03:44.444Z,5.17
2018-09-11T23:06:13.964Z,5.50
2018-09-11T23:08:43.456Z,6.00
2018-09-11T23:11:13.001Z,5.60
2018-09-11T23:13:42.596Z,5.10
2018-09-11T23:16:12.110Z,5.30
2018-09-11T23:18:41.671Z,5.50
2018-09-11T23:21:11.247Z,4.90
2018-09-11T23:23:40.770Z,5.70
2018-09-11T23:26:10.330Z,5.00
2018-09-11T23:28:39.915Z,5.20
2018-09-11T23:31:09.411Z,5.20
2018-09-11T23:33:39.006Z,5.40
2018-09-11T23:36:08.574Z,6.37
2018-09-11T23:38:38.125Z,5.47
2018-09-11T23:41:07.818Z,5.33
2018-09-11T23:43:37.448Z,4.93
2018-09-11T23:46:07.057Z,4.97
2018-09-11T23:48:36.545Z,5.20
2018-09-11T23:51:06.095Z,5.57
2018-09-11T23:53:35.602Z,5.73
2018-09-11T23:56:05.126Z,5.17
2018-09-11T23:58:34.657Z,5.43
